Munin Explorer — C4XX2 — position and weather

sailwx.info

Track history (hours):
 
Tides and Currents Weather Stations Pressure Air Temp Water Temp Dewpoint Dewpoint Depression Visibility Wind Speed Wind Dir Waves Ship Positions

Munin Explorer

Last reported at 2014-Sep-04 15:20 UTC. Time now 2014-Sep-18 21:51 UTC.
Position N 57°11' W 002°02'.
Warning: this ship's position is 14 days out of date.

Length 60 m; draft 7 m.

Type: Other ship. MMSI: 210228000.

Date/timePositionNaut miles runAvg speedWind from/ knotsBaromVisibWave heightAir tempDewpointWater temp
2014-Sep-04 15:20N 57°11' W 002°02'  
2014-Aug-30 04:28N 57°17' W 001°48'4 4.3
2014-Aug-30 03:34N 57°20' W 001°43'5 4.6
2014-Aug-30 02:34N 57°23' W 001°37'5 4.8
2014-Aug-30 01:34N 57°27' W 001°32'4 4.4
2014-Aug-30 00:34N 57°31' W 001°28'5 4.8
2014-Aug-29 23:34N 57°36' W 001°26'6 5.4
2014-Aug-29 22:23N 57°42' W 001°23'7 5.7
2014-Aug-29 21:12N 57°48' W 001°17'6 0.3
2014-Aug-28 23:31N 57°53' W 001°11'4 3.7
2014-Aug-28 22:33N 57°53' W 001°04'  
Track history (hours):
 
Tides and Currents Weather Stations Pressure Air Temp Water Temp Dewpoint Dewpoint Depression Visibility Wind Speed Wind Dir Waves Ship Positions

Munin Explorer

Last reported at 2014-Sep-04 15:20 UTC. Time now 2014-Sep-18 21:51 UTC.
Position N 57°11' W 002°02'.
Warning: this ship's position is 14 days out of date.

Length 60 m; draft 7 m.

Type: Other ship. MMSI: 210228000.

Date/timePositionNaut miles runAvg speedWind from/ knotsBaromVisibWave heightAir tempDewpointWater temp
2014-Sep-04 15:20N 57°11' W 002°02'  
2014-Aug-30 04:28N 57°17' W 001°48'4 4.3
2014-Aug-30 03:34N 57°20' W 001°43'5 4.6
2014-Aug-30 02:34N 57°23' W 001°37'5 4.8
2014-Aug-30 01:34N 57°27' W 001°32'4 4.4
2014-Aug-30 00:34N 57°31' W 001°28'5 4.8
2014-Aug-29 23:34N 57°36' W 001°26'6 5.4
2014-Aug-29 22:23N 57°42' W 001°23'7 5.7
2014-Aug-29 21:12N 57°48' W 001°17'6 0.3
2014-Aug-28 23:31N 57°53' W 001°11'4 3.7
2014-Aug-28 22:33N 57°53' W 001°04'  

Dump ship's entire track history